sensor_id;sensor_type;location;lat;lon;timestamp;pressure;altitude;pressure_sealevel;temperature;humidity
26443;BME280;5563;52.296;6.806;2023-05-02T00:01:41;101738.34;;;9.82;82.94
26443;BME280;5563;52.296;6.806;2023-05-02T00:04:24;101737.28;;;9.85;83.55
26443;BME280;5563;52.296;6.806;2023-05-02T00:06:52;101739.56;;;9.91;83.80
26443;BME280;5563;52.296;6.806;2023-05-02T00:09:32;101721.19;;;9.87;83.04
26443;BME280;5563;52.296;6.806;2023-05-02T00:11:59;101749.34;;;10.05;83.55
26443;BME280;5563;52.296;6.806;2023-05-02T00:18:15;101729.84;;;9.90;83.50
26443;BME280;5563;52.296;6.806;2023-05-02T00:21:18;101728.53;;;9.83;83.40
26443;BME280;5563;52.296;6.806;2023-05-02T00:24:11;101755.03;;;9.99;83.60
26443;BME280;5563;52.296;6.806;2023-05-02T00:27:17;101728.38;;;9.86;82.96
26443;BME280;5563;52.296;6.806;2023-05-02T00:29:59;101726.63;;;9.85;83.80
26443;BME280;5563;52.296;6.806;2023-05-02T00:32:33;101733.69;;;9.86;83.90
26443;BME280;5563;52.296;6.806;2023-05-02T00:35:02;101758.41;;;10.02;83.91
26443;BME280;5563;52.296;6.806;2023-05-02T00:37:45;101767.63;;;10.11;83.90
26443;BME280;5563;52.296;6.806;2023-05-02T00:40:12;101740.13;;;9.96;83.89
26443;BME280;5563;52.296;6.806;2023-05-02T00:43:15;101745.91;;;10.03;82.90
26443;BME280;5563;52.296;6.806;2023-05-02T00:49:29;101736.22;;;10.02;83.67
26443;BME280;5563;52.296;6.806;2023-05-02T00:52:03;101735.16;;;10.04;84.23
26443;BME280;5563;52.296;6.806;2023-05-02T00:54:58;101744.59;;;10.10;83.36
26443;BME280;5563;52.296;6.806;2023-05-02T00:57:39;101736.00;;;10.05;83.43
26443;BME280;5563;52.296;6.806;2023-05-02T01:00:15;101735.16;;;10.04;83.98
26443;BME280;5563;52.296;6.806;2023-05-02T01:06:18;101772.84;;;10.26;83.49
26443;BME280;5563;52.296;6.806;2023-05-02T01:15:20;101748.94;;;10.25;83.17
26443;BME280;5563;52.296;6.806;2023-05-02T01:17:59;101748.19;;;10.23;83.69
26443;BME280;5563;52.296;6.806;2023-05-02T01:20:37;101736.44;;;10.13;83.71
26443;BME280;5563;52.296;6.806;2023-05-02T01:23:20;101737.25;;;10.13;83.82
26443;BME280;5563;52.296;6.806;2023-05-02T01:29:26;101745.53;;;10.23;84.07
26443;BME280;5563;52.296;6.806;2023-05-02T01:32:11;101754.16;;;10.26;84.21
26443;BME280;5563;52.296;6.806;2023-05-02T01:38:57;101753.31;;;10.26;84.91
26443;BME280;5563;52.296;6.806;2023-05-02T01:45:06;101746.22;;;10.12;85.27
26443;BME280;5563;52.296;6.806;2023-05-02T01:47:54;101773.75;;;10.25;85.89
26443;BME280;5563;52.296;6.806;2023-05-02T01:50:50;101785.66;;;10.34;85.63
26443;BME280;5563;52.296;6.806;2023-05-02T01:53:38;101768.53;;;10.24;86.38
26443;BME280;5563;52.296;6.806;2023-05-02T01:56:09;101768.75;;;10.21;86.51
26443;BME280;5563;52.296;6.806;2023-05-02T01:59:15;101795.25;;;10.36;85.87
26443;BME280;5563;52.296;6.806;2023-05-02T02:06:02;101801.66;;;10.34;85.79
26443;BME280;5563;52.296;6.806;2023-05-02T02:08:41;101775.31;;;10.15;86.28
26443;BME280;5563;52.296;6.806;2023-05-02T02:11:34;101770.00;;;10.15;86.46
26443;BME280;5563;52.296;6.806;2023-05-02T02:17:56;101779.13;;;10.11;87.23
26443;BME280;5563;52.296;6.806;2023-05-02T02:20:34;101787.50;;;10.05;87.54
26443;BME280;5563;52.296;6.806;2023-05-02T02:23:05;101783.09;;;10.04;87.40
26443;BME280;5563;52.296;6.806;2023-05-02T02:25:44;101825.84;;;10.17;87.39
26443;BME280;5563;52.296;6.806;2023-05-02T02:28:21;101791.78;;;9.94;87.20
26443;BME280;5563;52.296;6.806;2023-05-02T02:31:03;101824.59;;;9.94;87.69
26443;BME280;5563;52.296;6.806;2023-05-02T02:34:04;101811.66;;;9.74;87.38
26443;BME280;5563;52.296;6.806;2023-05-02T02:36:57;101821.59;;;9.72;87.20
26443;BME280;5563;52.296;6.806;2023-05-02T02:45:32;101822.03;;;9.50;86.88
26443;BME280;5563;52.296;6.806;2023-05-02T02:48:36;101862.66;;;9.68;86.75
26443;BME280;5563;52.296;6.806;2023-05-02T02:55:15;101845.59;;;9.42;85.67
26443;BME280;5563;52.296;6.806;2023-05-02T02:58:31;101854.63;;;9.40;85.48
26443;BME280;5563;52.296;6.806;2023-05-02T03:01:02;101857.34;;;9.38;85.09
26443;BME280;5563;52.296;6.806;2023-05-02T03:03:54;101861.06;;;9.36;85.34
26443;BME280;5563;52.296;6.806;2023-05-02T03:06:30;101865.28;;;9.40;84.96
26443;BME280;5563;52.296;6.806;2023-05-02T03:09:14;101855.19;;;9.31;83.80
26443;BME280;5563;52.296;6.806;2023-05-02T03:11:47;101858.19;;;9.25;82.50
26443;BME280;5563;52.296;6.806;2023-05-02T03:21:28;101879.72;;;9.36;81.22
26443;BME280;5563;52.296;6.806;2023-05-02T03:28:07;101876.13;;;9.21;81.86
26443;BME280;5563;52.296;6.806;2023-05-02T03:30:42;101890.03;;;9.26;81.93
26443;BME280;5563;52.296;6.806;2023-05-02T03:33:13;101894.66;;;9.23;82.32
26443;BME280;5563;52.296;6.806;2023-05-02T03:43:40;101937.69;;;9.31;82.52
26443;BME280;5563;52.296;6.806;2023-05-02T03:46:19;101914.00;;;9.11;82.63
26443;BME280;5563;52.296;6.806;2023-05-02T03:48:58;101903.47;;;9.09;82.30
26443;BME280;5563;52.296;6.806;2023-05-02T03:51:54;101903.56;;;9.08;82.40
26443;BME280;5563;52.296;6.806;2023-05-02T03:55:54;101916.00;;;9.07;82.39
26443;BME280;5563;52.296;6.806;2023-05-02T04:42:54;102007.41;;;8.42;86.28
26443;BME280;5563;52.296;6.806;2023-05-02T04:49:15;102045.53;;;8.07;86.97
26443;BME280;5563;52.296;6.806;2023-05-02T04:51:48;102035.09;;;7.87;87.53
26443;BME280;5563;52.296;6.806;2023-05-02T04:54:17;102061.38;;;7.92;87.31
26443;BME280;5563;52.296;6.806;2023-05-02T04:56:54;102032.47;;;7.68;87.57
26443;BME280;5563;52.296;6.806;2023-05-02T04:59:21;102043.09;;;7.68;88.45
26443;BME280;5563;52.296;6.806;2023-05-02T05:05:45;102068.31;;;7.60;88.98
26443;BME280;5563;52.296;6.806;2023-05-02T05:08:24;102069.25;;;7.59;88.79
26443;BME280;5563;52.296;6.806;2023-05-02T05:11:12;102074.69;;;7.56;89.33
26443;BME280;5563;52.296;6.806;2023-05-02T05:13:45;102085.38;;;7.54;89.31
26443;BME280;5563;52.296;6.806;2023-05-02T05:16:16;102077.78;;;7.47;89.28
26443;BME280;5563;52.296;6.806;2023-05-02T05:22:43;102096.66;;;7.41;89.59
26443;BME280;5563;52.296;6.806;2023-05-02T05:32:18;102108.38;;;7.18;88.74
26443;BME280;5563;52.296;6.806;2023-05-02T05:35:04;102135.81;;;7.17;88.17
26443;BME280;5563;52.296;6.806;2023-05-02T05:37:41;102152.53;;;7.19;88.11
26443;BME280;5563;52.296;6.806;2023-05-02T05:40:18;102141.75;;;7.04;88.05
26443;BME280;5563;52.296;6.806;2023-05-02T05:42:51;102145.31;;;7.03;87.84
26443;BME280;5563;52.296;6.806;2023-05-02T05:48:55;102149.72;;;7.04;88.01
26443;BME280;5563;52.296;6.806;2023-05-02T05:51:38;102162.75;;;7.08;87.89
26443;BME280;5563;52.296;6.806;2023-05-02T05:54:15;102157.22;;;6.94;87.73
26443;BME280;5563;52.296;6.806;2023-05-02T05:56:49;102158.41;;;6.87;87.69
26443;BME280;5563;52.296;6.806;2023-05-02T05:59:24;102178.28;;;6.97;88.07
26443;BME280;5563;52.296;6.806;2023-05-02T06:02:03;102185.56;;;6.92;87.69
26443;BME280;5563;52.296;6.806;2023-05-02T06:04:33;102192.41;;;6.98;87.40
26443;BME280;5563;52.296;6.806;2023-05-02T06:07:20;102181.41;;;6.87;87.20
26443;BME280;5563;52.296;6.806;2023-05-02T06:09:52;102195.19;;;6.95;87.58
26443;BME280;5563;52.296;6.806;2023-05-02T06:13:04;102214.72;;;7.12;87.16
26443;BME280;5563;52.296;6.806;2023-05-02T06:19:53;102218.69;;;7.22;86.29
26443;BME280;5563;52.296;6.806;2023-05-02T06:26:09;102221.00;;;7.30;85.82
26443;BME280;5563;52.296;6.806;2023-05-02T06:28:47;102205.50;;;7.21;85.52
26443;BME280;5563;52.296;6.806;2023-05-02T06:31:37;102232.78;;;7.43;85.19
26443;BME280;5563;52.296;6.806;2023-05-02T06:34:37;102214.81;;;7.29;83.42
26443;BME280;5563;52.296;6.806;2023-05-02T06:37:07;102208.38;;;7.35;84.22
26443;BME280;5563;52.296;6.806;2023-05-02T06:40:02;102230.47;;;7.54;84.06
26443;BME280;5563;52.296;6.806;2023-05-02T06:49:29;102250.28;;;7.84;81.41
26443;BME280;5563;52.296;6.806;2023-05-02T06:59:32;102294.91;;;7.95;78.47
26443;BME280;5563;52.296;6.806;2023-05-02T07:02:12;102283.47;;;7.94;76.33
26443;BME280;5563;52.296;6.806;2023-05-02T07:05:07;102271.25;;;7.90;77.34
26443;BME280;5563;52.296;6.806;2023-05-02T07:11:30;102282.16;;;8.03;75.95
26443;BME280;5563;52.296;6.806;2023-05-02T07:17:40;102291.47;;;8.11;74.06
26443;BME280;5563;52.296;6.806;2023-05-02T07:20:09;102303.91;;;8.29;72.65
26443;BME280;5563;52.296;6.806;2023-05-02T07:26:18;102316.72;;;8.57;73.79
26443;BME280;5563;52.296;6.806;2023-05-02T07:32:25;102301.03;;;8.69;70.99
26443;BME280;5563;52.296;6.806;2023-05-02T07:46:25;102331.56;;;9.31;69.54
26443;BME280;5563;52.296;6.806;2023-05-02T07:52:42;102329.75;;;9.14;64.33
26443;BME280;5563;52.296;6.806;2023-05-02T07:59:05;102333.19;;;9.33;64.98
26443;BME280;5563;52.296;6.806;2023-05-02T08:05:40;102327.63;;;9.38;62.72
26443;BME280;5563;52.296;6.806;2023-05-02T08:12:23;102344.88;;;9.63;62.98
26443;BME280;5563;52.296;6.806;2023-05-02T08:18:36;102342.34;;;9.77;61.06
26443;BME280;5563;52.296;6.806;2023-05-02T08:21:14;102355.66;;;9.77;59.46
26443;BME280;5563;52.296;6.806;2023-05-02T08:28:10;102375.44;;;9.56;59.46
26443;BME280;5563;52.296;6.806;2023-05-02T08:34:32;102360.84;;;9.31;59.26
26443;BME280;5563;52.296;6.806;2023-05-02T09:08:44;102400.31;;;10.22;54.31
26443;BME280;5563;52.296;6.806;2023-05-02T09:26:22;102432.19;;;10.56;54.38
26443;BME280;5563;52.296;6.806;2023-05-02T09:29:04;102412.31;;;10.46;52.28
26443;BME280;5563;52.296;6.806;2023-05-02T09:31:52;102427.44;;;10.46;53.09
26443;BME280;5563;52.296;6.806;2023-05-02T09:35:08;102442.66;;;10.59;53.25
26443;BME280;5563;52.296;6.806;2023-05-02T09:37:45;102441.91;;;10.57;52.71
26443;BME280;5563;52.296;6.806;2023-05-02T09:44:15;102452.59;;;10.73;53.85
26443;BME280;5563;52.296;6.806;2023-05-02T09:46:54;102456.28;;;10.55;50.46
26443;BME280;5563;52.296;6.806;2023-05-02T09:53:29;102481.28;;;10.52;55.24
26443;BME280;5563;52.296;6.806;2023-05-02T09:59:40;102466.75;;;10.42;52.64
26443;BME280;5563;52.296;6.806;2023-05-02T10:05:45;102469.41;;;10.27;52.01
26443;BME280;5563;52.296;6.806;2023-05-02T10:08:24;102511.03;;;10.45;53.86
26443;BME280;5563;52.296;6.806;2023-05-02T10:10:56;102481.00;;;10.41;52.70
26443;BME280;5563;52.296;6.806;2023-05-02T10:17:27;102477.69;;;10.53;50.25
26443;BME280;5563;52.296;6.806;2023-05-02T10:20:06;102507.84;;;10.71;51.25
26443;BME280;5563;52.296;6.806;2023-05-02T10:30:07;102472.69;;;10.47;53.14
26443;BME280;5563;52.296;6.806;2023-05-02T10:32:48;102488.44;;;10.52;51.24
26443;BME280;5563;52.296;6.806;2023-05-02T10:35:24;102499.53;;;10.44;51.50
26443;BME280;5563;52.296;6.806;2023-05-02T10:38:00;102492.47;;;10.43;53.59
26443;BME280;5563;52.296;6.806;2023-05-02T10:40:39;102489.97;;;10.40;52.54
26443;BME280;5563;52.296;6.806;2023-05-02T10:43:16;102496.16;;;10.41;51.98
26443;BME280;5563;52.296;6.806;2023-05-02T10:45:46;102497.66;;;10.46;53.48
26443;BME280;5563;52.296;6.806;2023-05-02T10:51:33;102501.81;;;10.83;53.67
26443;BME280;5563;52.296;6.806;2023-05-02T10:57:30;102498.69;;;11.22;50.33
26443;BME280;5563;52.296;6.806;2023-05-02T11:00:31;102493.88;;;11.44;50.75
26443;BME280;5563;52.296;6.806;2023-05-02T11:03:53;102519.53;;;11.91;49.89
26443;BME280;5563;52.296;6.806;2023-05-02T11:06:30;102506.00;;;11.65;48.97
26443;BME280;5563;52.296;6.806;2023-05-02T11:09:46;102526.91;;;11.72;49.74
26443;BME280;5563;52.296;6.806;2023-05-02T11:12:52;102528.25;;;11.64;49.85
26443;BME280;5563;52.296;6.806;2023-05-02T11:25:34;102509.91;;;12.17;47.84
26443;BME280;5563;52.296;6.806;2023-05-02T11:34:47;102508.09;;;12.18;48.27
26443;BME280;5563;52.296;6.806;2023-05-02T11:41:00;102518.78;;;12.04;46.18
26443;BME280;5563;52.296;6.806;2023-05-02T11:43:34;102531.59;;;12.13;48.07
26443;BME280;5563;52.296;6.806;2023-05-02T11:46:19;102516.09;;;12.04;45.22
26443;BME280;5563;52.296;6.806;2023-05-02T11:48:50;102526.25;;;12.13;46.31
26443;BME280;5563;52.296;6.806;2023-05-02T11:55:04;102520.59;;;12.03;45.83
26443;BME280;5563;52.296;6.806;2023-05-02T11:57:39;102519.34;;;11.94;46.72
26443;BME280;5563;52.296;6.806;2023-05-02T12:00:38;102520.84;;;11.84;46.29
26443;BME280;5563;52.296;6.806;2023-05-02T12:03:27;102525.13;;;11.87;47.38
26443;BME280;5563;52.296;6.806;2023-05-02T12:06:15;102544.50;;;12.06;46.31
26443;BME280;5563;52.296;6.806;2023-05-02T12:12:43;102542.28;;;13.25;44.76
26443;BME280;5563;52.296;6.806;2023-05-02T12:15:22;102539.31;;;13.56;42.78
26443;BME280;5563;52.296;6.806;2023-05-02T12:18:11;102530.19;;;13.46;42.12
26443;BME280;5563;52.296;6.806;2023-05-02T12:24:23;102559.16;;;13.13;44.27
26443;BME280;5563;52.296;6.806;2023-05-02T12:33:45;102568.84;;;13.69;42.23
26443;BME280;5563;52.296;6.806;2023-05-02T12:36:24;102555.59;;;13.53;42.06
26443;BME280;5563;52.296;6.806;2023-05-02T12:43:00;102547.38;;;13.01;43.60
26443;BME280;5563;52.296;6.806;2023-05-02T12:45:38;102558.78;;;12.91;43.58
26443;BME280;5563;52.296;6.806;2023-05-02T12:51:56;102557.53;;;13.11;44.10
26443;BME280;5563;52.296;6.806;2023-05-02T12:58:08;102582.72;;;13.88;42.18
26443;BME280;5563;52.296;6.806;2023-05-02T13:04:12;102600.81;;;14.11;41.27
26443;BME280;5563;52.296;6.806;2023-05-02T13:07:08;102563.44;;;14.60;41.32
26443;BME280;5563;52.296;6.806;2023-05-02T13:09:43;102568.47;;;14.77;39.08
26443;BME280;5563;52.296;6.806;2023-05-02T13:12:34;102568.13;;;14.94;40.47
26443;BME280;5563;52.296;6.806;2023-05-02T13:15:18;102576.66;;;15.24;38.79
26443;BME280;5563;52.296;6.806;2023-05-02T13:21:09;102584.56;;;15.51;37.82
26443;BME280;5563;52.296;6.806;2023-05-02T13:23:56;102585.47;;;15.86;37.12
26443;BME280;5563;52.296;6.806;2023-05-02T13:30:16;102603.31;;;16.10;38.24
26443;BME280;5563;52.296;6.806;2023-05-02T13:33:04;102589.56;;;16.02;36.12
26443;BME280;5563;52.296;6.806;2023-05-02T13:35:33;102580.44;;;16.05;36.80
26443;BME280;5563;52.296;6.806;2023-05-02T13:38:20;102570.44;;;15.60;37.46
26443;BME280;5563;52.296;6.806;2023-05-02T13:47:51;102606.91;;;14.27;39.01
26443;BME280;5563;52.296;6.806;2023-05-02T13:50:24;102581.97;;;13.86;40.05
26443;BME280;5563;52.296;6.806;2023-05-02T13:53:12;102599.28;;;13.68;40.99
26443;BME280;5563;52.296;6.806;2023-05-02T13:55:48;102589.72;;;13.37;40.10
26443;BME280;5563;52.296;6.806;2023-05-02T14:02:21;102575.13;;;14.84;38.41
26443;BME280;5563;52.296;6.806;2023-05-02T14:05:02;102593.66;;;15.61;36.95
26443;BME280;5563;52.296;6.806;2023-05-02T14:07:32;102582.59;;;15.53;37.01
26443;BME280;5563;52.296;6.806;2023-05-02T14:13:26;102603.00;;;15.68;38.29
26443;BME280;5563;52.296;6.806;2023-05-02T14:16:02;102577.63;;;15.83;36.15
26443;BME280;5563;52.296;6.806;2023-05-02T14:18:29;102577.47;;;15.73;36.31
26443;BME280;5563;52.296;6.806;2023-05-02T14:21:10;102586.38;;;15.97;37.40
26443;BME280;5563;52.296;6.806;2023-05-02T14:23:54;102600.00;;;16.07;36.85
26443;BME280;5563;52.296;6.806;2023-05-02T14:26:27;102591.81;;;16.19;36.80
26443;BME280;5563;52.296;6.806;2023-05-02T14:29:01;102584.41;;;16.34;36.09
26443;BME280;5563;52.296;6.806;2023-05-02T14:31:34;102577.44;;;16.32;34.75
26443;BME280;5563;52.296;6.806;2023-05-02T14:34:19;102574.06;;;15.82;34.95
26443;BME280;5563;52.296;6.806;2023-05-02T14:37:00;102569.25;;;15.15;37.41
26443;BME280;5563;52.296;6.806;2023-05-02T14:39:36;102576.53;;;14.64;38.74
26443;BME280;5563;52.296;6.806;2023-05-02T14:42:03;102586.72;;;14.34;38.85
26443;BME280;5563;52.296;6.806;2023-05-02T14:44:50;102586.22;;;14.02;38.72
26443;BME280;5563;52.296;6.806;2023-05-02T14:47:18;102603.63;;;13.83;39.68
26443;BME280;5563;52.296;6.806;2023-05-02T14:49:51;102576.41;;;13.36;40.69
26443;BME280;5563;52.296;6.806;2023-05-02T14:52:21;102589.91;;;13.34;40.47
26443;BME280;5563;52.296;6.806;2023-05-02T14:55:00;102588.00;;;13.22;40.18
26443;BME280;5563;52.296;6.806;2023-05-02T14:57:30;102576.97;;;13.41;41.23
26443;BME280;5563;52.296;6.806;2023-05-02T15:00:14;102605.22;;;13.73;39.89
26443;BME280;5563;52.296;6.806;2023-05-02T15:03:18;102607.84;;;13.60;40.72
26443;BME280;5563;52.296;6.806;2023-05-02T15:05:56;102606.81;;;13.49;40.82
26443;BME280;5563;52.296;6.806;2023-05-02T15:08:42;102586.44;;;13.32;40.71
26443;BME280;5563;52.296;6.806;2023-05-02T15:14:54;102591.38;;;13.12;43.15
26443;BME280;5563;52.296;6.806;2023-05-02T15:17:37;102580.44;;;13.00;43.09
26443;BME280;5563;52.296;6.806;2023-05-02T15:20:28;102577.22;;;12.95;42.87
26443;BME280;5563;52.296;6.806;2023-05-02T15:23:15;102583.44;;;12.96;43.13
26443;BME280;5563;52.296;6.806;2023-05-02T15:25:42;102599.03;;;12.89;43.61
26443;BME280;5563;52.296;6.806;2023-05-02T15:28:16;102599.78;;;12.77;43.46
26443;BME280;5563;52.296;6.806;2023-05-02T15:34:15;102604.22;;;12.49;43.56
26443;BME280;5563;52.296;6.806;2023-05-02T15:36:51;102596.19;;;12.35;45.20
26443;BME280;5563;52.296;6.806;2023-05-02T15:39:20;102599.94;;;12.46;44.32
26443;BME280;5563;52.296;6.806;2023-05-02T15:42:13;102600.16;;;12.43;44.57
26443;BME280;5563;52.296;6.806;2023-05-02T15:44:43;102602.88;;;12.42;44.95
26443;BME280;5563;52.296;6.806;2023-05-02T15:47:18;102628.91;;;12.54;44.77
26443;BME280;5563;52.296;6.806;2023-05-02T15:49:52;102606.72;;;12.38;44.37
26443;BME280;5563;52.296;6.806;2023-05-02T15:56:08;102606.22;;;12.31;45.72
26443;BME280;5563;52.296;6.806;2023-05-02T15:58:47;102616.91;;;12.31;45.28
26443;BME280;5563;52.296;6.806;2023-05-02T16:01:21;102605.25;;;12.18;45.00
26443;BME280;5563;52.296;6.806;2023-05-02T16:07:08;102619.84;;;12.13;46.90
26443;BME280;5563;52.296;6.806;2023-05-02T16:09:38;102621.97;;;12.22;46.51
26443;BME280;5563;52.296;6.806;2023-05-02T16:12:13;102614.00;;;12.06;46.65
26443;BME280;5563;52.296;6.806;2023-05-02T16:14:40;102615.22;;;12.01;45.10
26443;BME280;5563;52.296;6.806;2023-05-02T16:17:15;102622.91;;;11.91;44.68
26443;BME280;5563;52.296;6.806;2023-05-02T16:19:45;102629.28;;;11.88;44.80
26443;BME280;5563;52.296;6.806;2023-05-02T16:22:32;102640.06;;;11.87;45.41
26443;BME280;5563;52.296;6.806;2023-05-02T16:25:06;102662.66;;;11.97;46.09
26443;BME280;5563;52.296;6.806;2023-05-02T16:27:35;102656.34;;;11.98;46.00
26443;BME280;5563;52.296;6.806;2023-05-02T16:30:16;102636.44;;;11.88;45.42
26443;BME280;5563;52.296;6.806;2023-05-02T16:33:03;102625.06;;;11.69;46.43
26443;BME280;5563;52.296;6.806;2023-05-02T16:35:39;102622.50;;;11.67;46.04
26443;BME280;5563;52.296;6.806;2023-05-02T16:38:17;102655.06;;;11.89;45.43
26443;BME280;5563;52.296;6.806;2023-05-02T16:40:50;102641.88;;;11.71;45.80
26443;BME280;5563;52.296;6.806;2023-05-02T16:46:53;102622.84;;;11.77;47.97
26443;BME280;5563;52.296;6.806;2023-05-02T16:52:51;102634.28;;;12.24;46.32
26443;BME280;5563;52.296;6.806;2023-05-02T16:55:20;102652.69;;;12.44;46.54
26443;BME280;5563;52.296;6.806;2023-05-02T16:58:17;102638.94;;;12.21;44.18
26443;BME280;5563;52.296;6.806;2023-05-02T17:01:05;102629.59;;;11.98;46.51
26443;BME280;5563;52.296;6.806;2023-05-02T17:03:51;102630.34;;;11.86;46.20
26443;BME280;5563;52.296;6.806;2023-05-02T17:06:32;102626.53;;;11.74;45.60
26443;BME280;5563;52.296;6.806;2023-05-02T17:08:59;102642.25;;;11.65;45.75
26443;BME280;5563;52.296;6.806;2023-05-02T17:11:43;102624.09;;;11.39;46.87
26443;BME280;5563;52.296;6.806;2023-05-02T17:14:10;102642.97;;;11.36;48.09
26443;BME280;5563;52.296;6.806;2023-05-02T17:16:48;102658.25;;;11.49;47.52
26443;BME280;5563;52.296;6.806;2023-05-02T17:19:22;102642.47;;;11.29;48.89
26443;BME280;5563;52.296;6.806;2023-05-02T17:21:52;102639.78;;;11.14;50.38
26443;BME280;5563;52.296;6.806;2023-05-02T17:24:30;102629.59;;;11.05;50.32
26443;BME280;5563;52.296;6.806;2023-05-02T17:26:58;102649.22;;;11.04;50.35
26443;BME280;5563;52.296;6.806;2023-05-02T17:29:32;102672.22;;;11.06;50.76
26443;BME280;5563;52.296;6.806;2023-05-02T17:31:59;102652.25;;;10.80;51.24
26443;BME280;5563;52.296;6.806;2023-05-02T17:34:34;102677.63;;;10.89;51.36
26443;BME280;5563;52.296;6.806;2023-05-02T17:37:06;102670.94;;;10.80;51.19
26443;BME280;5563;52.296;6.806;2023-05-02T17:39:40;102642.09;;;10.54;51.21
26443;BME280;5563;52.296;6.806;2023-05-02T17:42:07;102668.22;;;10.65;51.92
26443;BME280;5563;52.296;6.806;2023-05-02T17:44:35;102655.59;;;10.51;53.35
26443;BME280;5563;52.296;6.806;2023-05-02T17:47:12;102685.16;;;10.64;51.42
26443;BME280;5563;52.296;6.806;2023-05-02T17:49:50;102671.91;;;10.45;51.10
26443;BME280;5563;52.296;6.806;2023-05-02T17:52:18;102656.78;;;10.29;51.94
26443;BME280;5563;52.296;6.806;2023-05-02T17:54:53;102665.53;;;10.31;52.05
26443;BME280;5563;52.296;6.806;2023-05-02T17:57:28;102656.47;;;10.18;52.33
26443;BME280;5563;52.296;6.806;2023-05-02T18:00:02;102670.59;;;10.20;51.13
26443;BME280;5563;52.296;6.806;2023-05-02T18:02:40;102653.69;;;10.02;50.82
26443;BME280;5563;52.296;6.806;2023-05-02T18:05:18;102660.88;;;10.00;51.18
26443;BME280;5563;52.296;6.806;2023-05-02T18:07:52;102693.91;;;10.15;50.96
26443;BME280;5563;52.296;6.806;2023-05-02T18:10:20;102672.63;;;9.96;50.90
26443;BME280;5563;52.296;6.806;2023-05-02T18:12:56;102668.44;;;9.91;50.46
26443;BME280;5563;52.296;6.806;2023-05-02T18:15:24;102673.84;;;9.89;48.91
26443;BME280;5563;52.296;6.806;2023-05-02T18:18:00;102699.44;;;9.93;49.32
26443;BME280;5563;52.296;6.806;2023-05-02T18:20:38;102701.41;;;9.88;50.15
26443;BME280;5563;52.296;6.806;2023-05-02T18:23:07;102692.94;;;9.80;49.83
26443;BME280;5563;52.296;6.806;2023-05-02T18:25:43;102676.63;;;9.69;50.10
26443;BME280;5563;52.296;6.806;2023-05-02T18:28:10;102701.72;;;9.82;51.58
26443;BME280;5563;52.296;6.806;2023-05-02T18:30:45;102672.25;;;9.68;51.99
26443;BME280;5563;52.296;6.806;2023-05-02T18:33:12;102673.53;;;9.59;51.38
26443;BME280;5563;52.296;6.806;2023-05-02T18:35:49;102689.94;;;9.69;52.14
26443;BME280;5563;52.296;6.806;2023-05-02T18:38:16;102704.84;;;9.73;51.53
26443;BME280;5563;52.296;6.806;2023-05-02T18:40:50;102694.47;;;9.67;52.32
26443;BME280;5563;52.296;6.806;2023-05-02T18:43:17;102698.94;;;9.66;51.81
26443;BME280;5563;52.296;6.806;2023-05-02T18:45:51;102693.25;;;9.55;52.17
26443;BME280;5563;52.296;6.806;2023-05-02T18:48:20;102718.59;;;9.64;52.98
26443;BME280;5563;52.296;6.806;2023-05-02T18:50:55;102696.28;;;9.48;52.47
26443;BME280;5563;52.296;6.806;2023-05-02T18:53:29;102717.16;;;9.57;54.01
26443;BME280;5563;52.296;6.806;2023-05-02T18:56:10;102695.09;;;9.35;52.96
26443;BME280;5563;52.296;6.806;2023-05-02T18:58:38;102701.16;;;9.38;53.12
26443;BME280;5563;52.296;6.806;2023-05-02T19:01:13;102688.34;;;9.28;54.35
26443;BME280;5563;52.296;6.806;2023-05-02T19:03:41;102694.63;;;9.27;54.77
26443;BME280;5563;52.296;6.806;2023-05-02T19:06:15;102700.72;;;9.29;54.06
26443;BME280;5563;52.296;6.806;2023-05-02T19:09:04;102710.31;;;9.33;54.38
26443;BME280;5563;52.296;6.806;2023-05-02T19:11:46;102704.19;;;9.31;55.31
26443;BME280;5563;52.296;6.806;2023-05-02T19:14:20;102725.13;;;9.38;55.53
26443;BME280;5563;52.296;6.806;2023-05-02T19:16:48;102703.75;;;9.21;55.51
26443;BME280;5563;52.296;6.806;2023-05-02T19:19:25;102699.06;;;9.08;56.54
26443;BME280;5563;52.296;6.806;2023-05-02T19:22:00;102701.97;;;9.02;56.35
26443;BME280;5563;52.296;6.806;2023-05-02T19:24:37;102702.38;;;8.93;56.50
26443;BME280;5563;52.296;6.806;2023-05-02T19:27:08;102718.41;;;8.91;56.74
26443;BME280;5563;52.296;6.806;2023-05-02T19:29:43;102711.06;;;8.78;57.16
26443;BME280;5563;52.296;6.806;2023-05-02T19:32:29;102709.03;;;8.62;56.48
26443;BME280;5563;52.296;6.806;2023-05-02T19:35:08;102729.72;;;8.56;57.49
26443;BME280;5563;52.296;6.806;2023-05-02T19:37:39;102749.38;;;8.52;57.57
26443;BME280;5563;52.296;6.806;2023-05-02T19:40:14;102731.69;;;8.31;58.67
26443;BME280;5563;52.296;6.806;2023-05-02T19:42:45;102753.66;;;8.34;58.86
26443;BME280;5563;52.296;6.806;2023-05-02T19:45:18;102762.81;;;8.27;59.51
26443;BME280;5563;52.296;6.806;2023-05-02T19:48:03;102743.53;;;8.01;59.32
26443;BME280;5563;52.296;6.806;2023-05-02T19:50:54;102740.53;;;7.87;59.65
26443;BME280;5563;52.296;6.806;2023-05-02T19:53:34;102726.94;;;7.73;60.56
26443;BME280;5563;52.296;6.806;2023-05-02T19:56:11;102762.81;;;7.83;60.44
26443;BME280;5563;52.296;6.806;2023-05-02T19:58:45;102752.28;;;7.58;61.44
26443;BME280;5563;52.296;6.806;2023-05-02T20:01:19;102747.50;;;7.44;61.34
26443;BME280;5563;52.296;6.806;2023-05-02T20:03:53;102756.56;;;7.39;62.02
26443;BME280;5563;52.296;6.806;2023-05-02T20:06:20;102783.78;;;7.44;62.41
26443;BME280;5563;52.296;6.806;2023-05-02T20:09:03;102764.28;;;7.22;62.67
26443;BME280;5563;52.296;6.806;2023-05-02T20:11:31;102750.81;;;7.03;62.75
26443;BME280;5563;52.296;6.806;2023-05-02T20:14:05;102774.56;;;7.06;62.85
26443;BME280;5563;52.296;6.806;2023-05-02T20:16:35;102779.16;;;7.01;62.79
26443;BME280;5563;52.296;6.806;2023-05-02T20:19:09;102783.91;;;6.93;63.71
26443;BME280;5563;52.296;6.806;2023-05-02T20:21:37;102794.44;;;6.95;64.36
26443;BME280;5563;52.296;6.806;2023-05-02T20:24:20;102786.03;;;6.82;64.30
26443;BME280;5563;52.296;6.806;2023-05-02T20:26:48;102759.50;;;6.57;64.19